sensor_id;sensor_type;location;lat;lon;timestamp;pressure;altitude;pressure_sealevel;temperature;humidity
49473;BME280;67434;50.956;6.918;2023-02-17T00:02:17;101680.50;;;10.73;75.15
49473;BME280;67434;50.956;6.918;2023-02-17T00:04:43;101683.56;;;10.77;75.35
49473;BME280;67434;50.956;6.918;2023-02-17T00:07:08;101675.94;;;10.74;75.40
49473;BME280;67434;50.956;6.918;2023-02-17T00:09:33;101670.19;;;10.82;75.09
49473;BME280;67434;50.956;6.918;2023-02-17T00:12:00;101672.56;;;10.78;75.04
49473;BME280;67434;50.956;6.918;2023-02-17T00:14:25;101669.38;;;10.81;74.97
49473;BME280;67434;50.956;6.918;2023-02-17T00:16:51;101665.97;;;10.86;74.83
49473;BME280;67434;50.956;6.918;2023-02-17T00:19:16;101670.91;;;10.89;74.92
49473;BME280;67434;50.956;6.918;2023-02-17T00:21:49;101671.47;;;10.91;74.81
49473;BME280;67434;50.956;6.918;2023-02-17T00:24:15;101671.00;;;10.94;74.66
49473;BME280;67434;50.956;6.918;2023-02-17T00:26:40;101657.59;;;10.99;74.76
49473;BME280;67434;50.956;6.918;2023-02-17T00:29:06;101648.53;;;11.05;74.41
49473;BME280;67434;50.956;6.918;2023-02-17T00:31:32;101660.63;;;11.03;74.72
49473;BME280;67434;50.956;6.918;2023-02-17T00:33:57;101650.63;;;11.03;74.54
49473;BME280;67434;50.956;6.918;2023-02-17T00:36:23;101646.28;;;11.02;74.82
49473;BME280;67434;50.956;6.918;2023-02-17T00:38:49;101646.06;;;11.04;74.83
49473;BME280;67434;50.956;6.918;2023-02-17T00:41:16;101647.22;;;11.08;74.72
49473;BME280;67434;50.956;6.918;2023-02-17T00:43:41;101637.69;;;11.05;74.80
49473;BME280;67434;50.956;6.918;2023-02-17T00:46:07;101644.41;;;11.03;75.13
49473;BME280;67434;50.956;6.918;2023-02-17T00:48:32;101645.56;;;11.07;75.03
49473;BME280;67434;50.956;6.918;2023-02-17T00:50:58;101649.44;;;11.11;74.95
49473;BME280;67434;50.956;6.918;2023-02-17T00:53:23;101654.63;;;11.12;74.83
49473;BME280;67434;50.956;6.918;2023-02-17T00:55:48;101652.88;;;11.06;75.10
49473;BME280;67434;50.956;6.918;2023-02-17T00:58:15;101647.69;;;11.05;74.97
49473;BME280;67434;50.956;6.918;2023-02-17T01:00:40;101659.81;;;11.02;75.25
49473;BME280;67434;50.956;6.918;2023-02-17T01:03:06;101645.56;;;11.07;75.01
49473;BME280;67434;50.956;6.918;2023-02-17T01:05:32;101655.56;;;11.06;75.03
49473;BME280;67434;50.956;6.918;2023-02-17T01:07:57;101652.03;;;11.06;74.96
49473;BME280;67434;50.956;6.918;2023-02-17T01:10:23;101651.47;;;11.04;75.08
49473;BME280;67434;50.956;6.918;2023-02-17T01:12:48;101641.81;;;11.08;75.09
49473;BME280;67434;50.956;6.918;2023-02-17T01:15:13;101634.66;;;11.02;75.32
49473;BME280;67434;50.956;6.918;2023-02-17T01:17:39;101632.31;;;10.93;75.35
49473;BME280;67434;50.956;6.918;2023-02-17T01:20:05;101625.72;;;11.01;75.33
49473;BME280;67434;50.956;6.918;2023-02-17T01:22:31;101630.06;;;11.02;75.26
49473;BME280;67434;50.956;6.918;2023-02-17T01:24:56;101617.22;;;11.09;75.02
49473;BME280;67434;50.956;6.918;2023-02-17T01:27:21;101626.16;;;11.10;74.97
49473;BME280;67434;50.956;6.918;2023-02-17T01:29:47;101622.63;;;11.09;75.01
49473;BME280;67434;50.956;6.918;2023-02-17T01:32:12;101609.00;;;11.04;75.06
49473;BME280;67434;50.956;6.918;2023-02-17T01:34:37;101609.22;;;11.03;75.10
49473;BME280;67434;50.956;6.918;2023-02-17T01:37:03;101604.41;;;11.05;74.97
49473;BME280;67434;50.956;6.918;2023-02-17T01:39:28;101601.13;;;11.03;74.96
49473;BME280;67434;50.956;6.918;2023-02-17T01:41:54;101603.59;;;11.04;74.98
49473;BME280;67434;50.956;6.918;2023-02-17T01:44:22;101611.94;;;11.03;74.91
49473;BME280;67434;50.956;6.918;2023-02-17T01:46:50;101592.63;;;11.11;74.73
49473;BME280;67434;50.956;6.918;2023-02-17T01:51:41;101602.75;;;11.15;74.41
49473;BME280;67434;50.956;6.918;2023-02-17T01:54:14;101595.91;;;11.13;74.82
49473;BME280;67434;50.956;6.918;2023-02-17T01:56:42;101590.25;;;11.14;74.48
49473;BME280;67434;50.956;6.918;2023-02-17T01:59:15;101587.44;;;11.21;74.54
49473;BME280;67434;50.956;6.918;2023-02-17T02:01:41;101581.69;;;11.17;74.41
49473;BME280;67434;50.956;6.918;2023-02-17T02:04:07;101586.53;;;11.15;74.34
49473;BME280;67434;50.956;6.918;2023-02-17T02:06:35;101581.31;;;11.14;74.89
49473;BME280;67434;50.956;6.918;2023-02-17T02:09:06;101576.72;;;11.14;74.73
49473;BME280;67434;50.956;6.918;2023-02-17T02:11:33;101585.09;;;11.13;74.94
49473;BME280;67434;50.956;6.918;2023-02-17T02:13:59;101580.97;;;11.10;75.06
49473;BME280;67434;50.956;6.918;2023-02-17T02:16:31;101582.88;;;11.10;74.98
49473;BME280;67434;50.956;6.918;2023-02-17T02:24:42;101578.41;;;11.15;75.01
49473;BME280;67434;50.956;6.918;2023-02-17T02:30:14;101570.88;;;11.17;74.69
49473;BME280;67434;50.956;6.918;2023-02-17T02:32:48;101574.63;;;11.16;74.89
49473;BME280;67434;50.956;6.918;2023-02-17T02:38:38;101562.53;;;11.07;75.29
49473;BME280;67434;50.956;6.918;2023-02-17T02:44:12;101561.47;;;11.08;75.30
49473;BME280;67434;50.956;6.918;2023-02-17T02:46:39;101562.53;;;11.07;75.29
49473;BME280;67434;50.956;6.918;2023-02-17T02:49:05;101567.94;;;11.07;75.38
49473;BME280;67434;50.956;6.918;2023-02-17T02:51:53;101551.69;;;11.07;75.32
49473;BME280;67434;50.956;6.918;2023-02-17T02:54:27;101551.94;;;11.06;75.39
49473;BME280;67434;50.956;6.918;2023-02-17T03:08:11;101545.47;;;11.07;75.47
49473;BME280;67434;50.956;6.918;2023-02-17T03:10:45;101542.28;;;11.10;75.44
49473;BME280;67434;50.956;6.918;2023-02-17T03:13:11;101536.53;;;11.06;75.35
49473;BME280;67434;50.956;6.918;2023-02-17T03:15:36;101538.50;;;11.11;75.23
49473;BME280;67434;50.956;6.918;2023-02-17T03:18:02;101540.53;;;11.15;75.04
49473;BME280;67434;50.956;6.918;2023-02-17T03:20:32;101539.00;;;11.08;75.18
49473;BME280;67434;50.956;6.918;2023-02-17T03:22:59;101543.34;;;11.09;74.95
49473;BME280;67434;50.956;6.918;2023-02-17T03:25:24;101544.06;;;11.04;75.29
49473;BME280;67434;50.956;6.918;2023-02-17T03:27:49;101532.91;;;11.01;75.19
49473;BME280;67434;50.956;6.918;2023-02-17T03:30:15;101540.38;;;11.10;75.04
49473;BME280;67434;50.956;6.918;2023-02-17T03:32:41;101531.34;;;11.05;75.13
49473;BME280;67434;50.956;6.918;2023-02-17T03:35:07;101524.53;;;11.02;75.13
49473;BME280;67434;50.956;6.918;2023-02-17T03:37:32;101524.06;;;11.05;74.99
49473;BME280;67434;50.956;6.918;2023-02-17T03:39:57;101518.41;;;11.07;74.97
49473;BME280;67434;50.956;6.918;2023-02-17T03:42:23;101526.03;;;11.10;75.03
49473;BME280;67434;50.956;6.918;2023-02-17T03:44:48;101527.81;;;11.04;74.84
49473;BME280;67434;50.956;6.918;2023-02-17T03:47:13;101528.88;;;11.03;74.97
49473;BME280;67434;50.956;6.918;2023-02-17T03:49:39;101531.44;;;11.10;74.74
49473;BME280;67434;50.956;6.918;2023-02-17T03:52:04;101529.00;;;11.08;74.64
49473;BME280;67434;50.956;6.918;2023-02-17T03:54:29;101526.63;;;11.12;74.58
49473;BME280;67434;50.956;6.918;2023-02-17T03:56:55;101530.16;;;11.12;74.55
49473;BME280;67434;50.956;6.918;2023-02-17T03:59:20;101523.00;;;11.06;74.74
49473;BME280;67434;50.956;6.918;2023-02-17T04:01:46;101525.22;;;11.09;74.55
49473;BME280;67434;50.956;6.918;2023-02-17T04:04:11;101518.16;;;11.08;74.54
49473;BME280;67434;50.956;6.918;2023-02-17T04:06:36;101520.28;;;11.06;74.68
49473;BME280;67434;50.956;6.918;2023-02-17T04:09:02;101509.81;;;11.10;74.59
49473;BME280;67434;50.956;6.918;2023-02-17T04:11:28;101521.44;;;11.10;74.53
49473;BME280;67434;50.956;6.918;2023-02-17T04:13:53;101530.97;;;11.13;74.32
49473;BME280;67434;50.956;6.918;2023-02-17T04:16:19;101541.44;;;11.09;74.60
49473;BME280;67434;50.956;6.918;2023-02-17T04:18:44;101531.34;;;11.16;74.19
49473;BME280;67434;50.956;6.918;2023-02-17T04:21:10;101519.31;;;11.12;74.05
49473;BME280;67434;50.956;6.918;2023-02-17T04:23:36;101532.03;;;11.12;74.26
49473;BME280;67434;50.956;6.918;2023-02-17T04:26:03;101519.31;;;11.12;73.96
49473;BME280;67434;50.956;6.918;2023-02-17T04:28:28;101522.41;;;11.16;73.92
49473;BME280;67434;50.956;6.918;2023-02-17T04:30:57;101528.84;;;11.15;73.89
49473;BME280;67434;50.956;6.918;2023-02-17T04:33:23;101524.03;;;11.17;73.67
49473;BME280;67434;50.956;6.918;2023-02-17T04:35:48;101527.56;;;11.17;73.55
49473;BME280;67434;50.956;6.918;2023-02-17T04:38:14;101533.81;;;11.18;73.79
49473;BME280;67434;50.956;6.918;2023-02-17T04:40:40;101530.50;;;11.16;73.67
49473;BME280;67434;50.956;6.918;2023-02-17T04:43:05;101531.91;;;11.18;73.51
49473;BME280;67434;50.956;6.918;2023-02-17T04:45:33;101524.94;;;11.22;73.20
49473;BME280;67434;50.956;6.918;2023-02-17T04:47:59;101524.72;;;11.24;73.11
49473;BME280;67434;50.956;6.918;2023-02-17T04:50:25;101523.56;;;11.20;73.18
49473;BME280;67434;50.956;6.918;2023-02-17T04:52:50;101520.50;;;11.16;73.51
49473;BME280;67434;50.956;6.918;2023-02-17T04:55:16;101524.16;;;11.10;73.57
49473;BME280;67434;50.956;6.918;2023-02-17T04:57:42;101512.75;;;11.08;73.77
49473;BME280;67434;50.956;6.918;2023-02-17T05:00:08;101511.59;;;11.04;73.57
49473;BME280;67434;50.956;6.918;2023-02-17T05:02:34;101516.66;;;11.01;73.86
49473;BME280;67434;50.956;6.918;2023-02-17T05:04:59;101524.53;;;11.02;73.91
49473;BME280;67434;50.956;6.918;2023-02-17T05:07:24;101517.50;;;11.01;74.02
49473;BME280;67434;50.956;6.918;2023-02-17T05:09:50;101511.00;;;11.02;73.89
49473;BME280;67434;50.956;6.918;2023-02-17T05:12:15;101516.84;;;11.11;73.45
49473;BME280;67434;50.956;6.918;2023-02-17T05:14:41;101521.22;;;11.12;73.49
49473;BME280;67434;50.956;6.918;2023-02-17T05:17:06;101510.97;;;11.14;73.48
49473;BME280;67434;50.956;6.918;2023-02-17T05:19:31;101521.09;;;11.18;73.08
49473;BME280;67434;50.956;6.918;2023-02-17T05:21:57;101528.38;;;11.18;72.67
49473;BME280;67434;50.956;6.918;2023-02-17T05:24:22;101520.50;;;11.16;73.31
49473;BME280;67434;50.956;6.918;2023-02-17T05:26:47;101525.69;;;11.18;72.95
49473;BME280;67434;50.956;6.918;2023-02-17T05:29:13;101523.56;;;11.20;72.85
49473;BME280;67434;50.956;6.918;2023-02-17T05:31:38;101524.94;;;11.22;72.79
49473;BME280;67434;50.956;6.918;2023-02-17T05:34:04;101521.44;;;11.22;72.58
49473;BME280;67434;50.956;6.918;2023-02-17T05:36:29;101522.25;;;11.22;72.58
49473;BME280;67434;50.956;6.918;2023-02-17T05:38:55;101520.84;;;11.20;72.71
49473;BME280;67434;50.956;6.918;2023-02-17T05:41:20;101520.03;;;11.19;72.82
49473;BME280;67434;50.956;6.918;2023-02-17T05:43:46;101501.66;;;11.21;72.60
49473;BME280;67434;50.956;6.918;2023-02-17T05:46:12;101505.19;;;11.22;72.51
49473;BME280;67434;50.956;6.918;2023-02-17T05:48:37;101504.59;;;11.20;72.76
49473;BME280;67434;50.956;6.918;2023-02-17T05:51:03;101511.19;;;11.24;72.67
49473;BME280;67434;50.956;6.918;2023-02-17T05:53:29;101503.31;;;11.22;72.64
49473;BME280;67434;50.956;6.918;2023-02-17T05:55:54;101505.91;;;11.17;72.66
49473;BME280;67434;50.956;6.918;2023-02-17T05:58:19;101486.00;;;11.23;72.94
49473;BME280;67434;50.956;6.918;2023-02-17T06:00:45;101494.03;;;11.18;72.98
49473;BME280;67434;50.956;6.918;2023-02-17T06:03:11;101501.31;;;11.18;73.20
49473;BME280;67434;50.956;6.918;2023-02-17T06:05:37;101494.03;;;11.18;73.30
49473;BME280;67434;50.956;6.918;2023-02-17T06:08:03;101486.25;;;11.22;72.95
49473;BME280;67434;50.956;6.918;2023-02-17T06:10:28;101492.47;;;11.22;72.90
49473;BME280;67434;50.956;6.918;2023-02-17T06:12:54;101494.94;;;11.24;73.19
49473;BME280;67434;50.956;6.918;2023-02-17T06:15:19;101503.63;;;11.26;73.40
49473;BME280;67434;50.956;6.918;2023-02-17T06:17:45;101497.16;;;11.27;73.48
49473;BME280;67434;50.956;6.918;2023-02-17T06:20:10;101511.59;;;11.33;73.54
49473;BME280;67434;50.956;6.918;2023-02-17T06:22:36;101514.41;;;11.38;73.39
49473;BME280;67434;50.956;6.918;2023-02-17T06:25:01;101511.94;;;11.36;73.68
49473;BME280;67434;50.956;6.918;2023-02-17T06:27:27;101501.03;;;11.31;74.15
49473;BME280;67434;50.956;6.918;2023-02-17T06:29:52;101502.75;;;11.37;74.15
49473;BME280;67434;50.956;6.918;2023-02-17T06:32:17;101508.75;;;11.39;74.47
49473;BME280;67434;50.956;6.918;2023-02-17T06:34:43;101498.25;;;11.43;74.62
49473;BME280;67434;50.956;6.918;2023-02-17T06:37:08;101493.81;;;11.37;74.90
49473;BME280;67434;50.956;6.918;2023-02-17T06:39:34;101492.50;;;11.39;74.95
49473;BME280;67434;50.956;6.918;2023-02-17T06:41:59;101498.72;;;11.40;75.04
49473;BME280;67434;50.956;6.918;2023-02-17T06:44:24;101491.19;;;11.42;75.09
49473;BME280;67434;50.956;6.918;2023-02-17T06:46:50;101494.38;;;11.39;75.21
49473;BME280;67434;50.956;6.918;2023-02-17T06:49:16;101489.31;;;11.42;75.41
49473;BME280;67434;50.956;6.918;2023-02-17T06:51:41;101490.47;;;11.46;75.24
49473;BME280;67434;50.956;6.918;2023-02-17T06:54:07;101504.22;;;11.45;75.26
49473;BME280;67434;50.956;6.918;2023-02-17T06:56:32;101497.75;;;11.46;75.30
49473;BME280;67434;50.956;6.918;2023-02-17T06:58:57;101500.53;;;11.51;75.33
49473;BME280;67434;50.956;6.918;2023-02-17T07:01:24;101508.22;;;11.54;75.38
49473;BME280;67434;50.956;6.918;2023-02-17T07:03:54;101512.06;;;11.58;75.33
49473;BME280;67434;50.956;6.918;2023-02-17T07:06:20;101499.28;;;11.53;75.50
49473;BME280;67434;50.956;6.918;2023-02-17T07:08:45;101497.13;;;11.55;75.51
49473;BME280;67434;50.956;6.918;2023-02-17T07:11:12;101506.56;;;11.53;75.77
49473;BME280;67434;50.956;6.918;2023-02-17T07:13:38;101502.56;;;11.55;75.75
49473;BME280;67434;50.956;6.918;2023-02-17T07:16:05;101498.53;;;11.58;75.86
49473;BME280;67434;50.956;6.918;2023-02-17T07:18:31;101494.84;;;11.64;75.88
49473;BME280;67434;50.956;6.918;2023-02-17T07:20:57;101486.47;;;11.66;76.08
49473;BME280;67434;50.956;6.918;2023-02-17T07:23:22;101485.41;;;11.67;76.24
49473;BME280;67434;50.956;6.918;2023-02-17T07:25:48;101493.19;;;11.63;76.32
49473;BME280;67434;50.956;6.918;2023-02-17T07:28:13;101493.84;;;11.70;76.39
49473;BME280;67434;50.956;6.918;2023-02-17T07:30:40;101484.97;;;11.75;76.22
49473;BME280;67434;50.956;6.918;2023-02-17T07:33:06;101478.84;;;11.79;75.89
49473;BME280;67434;50.956;6.918;2023-02-17T07:35:32;101490.50;;;11.80;75.95
49473;BME280;67434;50.956;6.918;2023-02-17T07:37:59;101491.66;;;11.84;75.86
49473;BME280;67434;50.956;6.918;2023-02-17T07:40:26;101488.81;;;11.91;75.59
49473;BME280;67434;50.956;6.918;2023-02-17T07:42:52;101488.06;;;11.95;75.45
49473;BME280;67434;50.956;6.918;2023-02-17T07:45:18;101493.88;;;12.04;75.21
49473;BME280;67434;50.956;6.918;2023-02-17T07:47:44;101495.84;;;12.08;75.02
49473;BME280;67434;50.956;6.918;2023-02-17T07:50:09;101507.50;;;12.09;75.01
49473;BME280;67434;50.956;6.918;2023-02-17T07:52:35;101506.00;;;12.18;74.99
49473;BME280;67434;50.956;6.918;2023-02-17T07:55:00;101509.03;;;12.21;74.78
49473;BME280;67434;50.956;6.918;2023-02-17T07:57:26;101495.34;;;12.28;74.49
49473;BME280;67434;50.956;6.918;2023-02-17T07:59:51;101507.31;;;12.32;74.71
49473;BME280;67434;50.956;6.918;2023-02-17T08:02:17;101512.75;;;12.32;74.81
49473;BME280;67434;50.956;6.918;2023-02-17T08:04:43;101507.25;;;12.27;74.86
49473;BME280;67434;50.956;6.918;2023-02-17T08:07:08;101499.59;;;12.24;75.12
49473;BME280;67434;50.956;6.918;2023-02-17T08:09:34;101495.81;;;12.25;75.17
49473;BME280;67434;50.956;6.918;2023-02-17T08:12:19;101506.31;;;12.21;75.51
49473;BME280;67434;50.956;6.918;2023-02-17T08:15:04;101514.31;;;12.28;75.38
49473;BME280;67434;50.956;6.918;2023-02-17T08:17:31;101505.00;;;12.24;75.67
49473;BME280;67434;50.956;6.918;2023-02-17T08:19:56;101499.44;;;12.31;75.46
49473;BME280;67434;50.956;6.918;2023-02-17T08:22:22;101501.66;;;12.34;75.22
49473;BME280;67434;50.956;6.918;2023-02-17T08:24:48;101512.00;;;12.37;75.13
49473;BME280;67434;50.956;6.918;2023-02-17T08:27:14;101527.50;;;12.41;75.06
49473;BME280;67434;50.956;6.918;2023-02-17T08:29:41;101515.53;;;12.37;75.33
49473;BME280;67434;50.956;6.918;2023-02-17T08:32:07;101520.91;;;12.54;74.64
49473;BME280;67434;50.956;6.918;2023-02-17T08:34:35;101515.78;;;12.58;74.54
49473;BME280;67434;50.956;6.918;2023-02-17T08:37:02;101513.13;;;12.63;74.24
49473;BME280;67434;50.956;6.918;2023-02-17T08:39:28;101515.06;;;12.84;73.29
49473;BME280;67434;50.956;6.918;2023-02-17T08:41:54;101510.88;;;12.98;72.94
49473;BME280;67434;50.956;6.918;2023-02-17T08:44:20;101504.97;;;13.01;72.57
49473;BME280;67434;50.956;6.918;2023-02-17T08:46:49;101505.38;;;13.15;72.22
49473;BME280;67434;50.956;6.918;2023-02-17T08:49:17;101511.13;;;13.19;71.80
49473;BME280;67434;50.956;6.918;2023-02-17T08:51:43;101511.13;;;13.19;72.04
49473;BME280;67434;50.956;6.918;2023-02-17T08:54:10;101508.28;;;13.08;72.04
49473;BME280;67434;50.956;6.918;2023-02-17T08:56:37;101511.44;;;13.22;71.75
49473;BME280;67434;50.956;6.918;2023-02-17T08:59:04;101499.59;;;13.33;71.13
49473;BME280;67434;50.956;6.918;2023-02-17T09:01:30;101506.53;;;13.46;70.68
49473;BME280;67434;50.956;6.918;2023-02-17T09:03:57;101492.72;;;13.48;70.55
49473;BME280;67434;50.956;6.918;2023-02-17T09:06:23;101498.97;;;13.48;70.31
49473;BME280;67434;50.956;6.918;2023-02-17T09:08:49;101498.22;;;13.58;69.97
49473;BME280;67434;50.956;6.918;2023-02-17T09:11:15;101485.31;;;13.75;69.52
49473;BME280;67434;50.956;6.918;2023-02-17T09:13:44;101503.88;;;13.83;69.26
49473;BME280;67434;50.956;6.918;2023-02-17T09:16:11;101495.69;;;13.78;69.22
49473;BME280;67434;50.956;6.918;2023-02-17T09:18:36;101492.91;;;13.73;69.32
49473;BME280;67434;50.956;6.918;2023-02-17T09:21:11;101506.03;;;13.81;68.97
49473;BME280;67434;50.956;6.918;2023-02-17T09:23:38;101499.34;;;13.94;68.73
49473;BME280;67434;50.956;6.918;2023-02-17T09:26:06;101501.06;;;14.10;67.86
49473;BME280;67434;50.956;6.918;2023-02-17T09:28:33;101508.31;;;14.36;67.32
49473;BME280;67434;50.956;6.918;2023-02-17T09:31:25;101497.25;;;14.48;66.73
49473;BME280;67434;50.956;6.918;2023-02-17T09:33:51;101500.91;;;14.64;66.25
49473;BME280;67434;50.956;6.918;2023-02-17T09:36:19;101490.56;;;14.71;65.79
49473;BME280;67434;50.956;6.918;2023-02-17T09:38:45;101488.16;;;14.85;65.59
49473;BME280;67434;50.956;6.918;2023-02-17T09:43:56;101494.53;;;15.11;64.51
49473;BME280;67434;50.956;6.918;2023-02-17T09:46:29;101497.53;;;15.09;64.33
49473;BME280;67434;50.956;6.918;2023-02-17T09:49:03;101501.84;;;15.00;64.72
49473;BME280;67434;50.956;6.918;2023-02-17T09:52:12;101508.31;;;14.84;65.30
49473;BME280;67434;50.956;6.918;2023-02-17T09:54:52;101510.75;;;14.80;65.30
49473;BME280;67434;50.956;6.918;2023-02-17T09:57:20;101514.09;;;14.97;64.77
49473;BME280;67434;50.956;6.918;2023-02-17T09:59:53;101509.19;;;14.99;64.46
49473;BME280;67434;50.956;6.918;2023-02-17T10:05:13;101510.94;;;15.31;63.55
49473;BME280;67434;50.956;6.918;2023-02-17T10:07:47;101513.06;;;15.19;63.71
49473;BME280;67434;50.956;6.918;2023-02-17T10:10:17;101497.53;;;15.09;64.05
49473;BME280;67434;50.956;6.918;2023-02-17T10:12:50;101513.91;;;15.29;63.92
49473;BME280;67434;50.956;6.918;2023-02-17T10:15:29;101513.13;;;15.39;63.32
49473;BME280;67434;50.956;6.918;2023-02-17T10:18:01;101524.03;;;15.49;63.19
49473;BME280;67434;50.956;6.918;2023-02-17T10:20:54;101522.72;;;15.72;62.32
49473;BME280;67434;50.956;6.918;2023-02-17T10:23:24;101511.81;;;15.72;62.55
49473;BME280;67434;50.956;6.918;2023-02-17T10:29:05;101519.66;;;15.43;63.37
49473;BME280;67434;50.956;6.918;2023-02-17T10:31:44;101524.06;;;15.59;62.78
49473;BME280;67434;50.956;6.918;2023-02-17T10:37:17;101523.53;;;15.83;61.73
49473;BME280;67434;50.956;6.918;2023-02-17T10:39:47;101512.06;;;15.96;62.16
49473;BME280;67434;50.956;6.918;2023-02-17T10:42:33;101514.81;;;16.06;60.90
49473;BME280;67434;50.956;6.918;2023-02-17T10:45:03;101507.16;;;16.18;61.15
49473;BME280;67434;50.956;6.918;2023-02-17T10:47:30;101498.66;;;16.35;60.56
49473;BME280;67434;50.956;6.918;2023-02-17T10:49:58;101504.59;;;16.57;60.10
49473;BME280;67434;50.956;6.918;2023-02-17T10:52:37;101507.59;;;16.66;59.36
49473;BME280;67434;50.956;6.918;2023-02-17T10:57:59;101499.19;;;16.42;60.16
49473;BME280;67434;50.956;6.918;2023-02-17T11:00:29;101507.66;;;16.46;60.12
49473;BME280;67434;50.956;6.918;2023-02-17T11:02:55;101499.94;;;16.63;59.89
49473;BME280;67434;50.956;6.918;2023-02-17T11:05:32;101510.34;;;16.66;59.67
49473;BME280;67434;50.956;6.918;2023-02-17T11:08:07;101510.88;;;16.68;59.61
49473;BME280;67434;50.956;6.918;2023-02-17T11:10:45;101503.22;;;16.70;59.48
49473;BME280;67434;50.956;6.918;2023-02-17T11:13:31;101498.31;;;16.57;59.84
49473;BME280;67434;50.956;6.918;2023-02-17T11:15:57;101502.69;;;16.68;59.78
49473;BME280;67434;50.956;6.918;2023-02-17T11:18:27;101482.50;;;16.54;60.33
49473;BME280;67434;50.956;6.918;2023-02-17T11:21:09;101461.81;;;16.33;60.78
49473;BME280;67434;50.956;6.918;2023-02-17T11:23:50;101492.44;;;16.14;61.37
49473;BME280;67434;50.956;6.918;2023-02-17T11:26:28;101484.28;;;15.84;62.29
49473;BME280;67434;50.956;6.918;2023-02-17T11:28:54;101491.63;;;15.88;62.47
49473;BME280;67434;50.956;6.918;2023-02-17T11:31:29;101475.53;;;15.92;62.20
49473;BME280;67434;50.956;6.918;2023-02-17T11:33:55;101488.66;;;15.70;63.00
49473;BME280;67434;50.956;6.918;2023-02-17T11:36:28;101490.28;;;15.86;62.57
49473;BME280;67434;50.956;6.918;2023-02-17T11:38:54;101495.75;;;16.01;62.14
49473;BME280;67434;50.956;6.918;2023-02-17T11:41:20;101499.56;;;15.85;62.71
49473;BME280;67434;50.956;6.918;2023-02-17T11:43:57;101483.75;;;15.82;62.98
49473;BME280;67434;50.956;6.918;2023-02-17T11:57:32;101451.53;;;16.09;61.93
49473;BME280;67434;50.956;6.918;2023-02-17T12:06:13;101427.53;;;15.96;62.05
49473;BME280;67434;50.956;6.918;2023-02-17T12:38:14;101446.50;;;16.52;59.88
49473;BME280;67434;50.956;6.918;2023-02-17T12:40:49;101442.13;;;16.51;59.71
49473;BME280;67434;50.956;6.918;2023-02-17T12:43:20;101444.63;;;16.32;59.66
49473;BME280;67434;50.956;6.918;2023-02-17T12:45:47;101443.63;;;16.08;60.44
49473;BME280;67434;50.956;6.918;2023-02-17T12:48:21;101440.66;;;16.04;61.04
49473;BME280;67434;50.956;6.918;2023-02-17T12:51:06;101432.19;;;16.06;60.90
49473;BME280;67434;50.956;6.918;2023-02-17T12:56:17;101434.53;;;16.43;59.87
49473;BME280;67434;50.956;6.918;2023-02-17T12:58:46;101424.44;;;16.38;59.85
49473;BME280;67434;50.956;6.918;2023-02-17T13:01:14;101428.28;;;16.37;59.75
49473;BME280;67434;50.956;6.918;2023-02-17T13:03:44;101417.91;;;16.39;59.87
49473;BME280;67434;50.956;6.918;2023-02-17T13:06:15;101428.81;;;16.39;60.03
49473;BME280;67434;50.956;6.918;2023-02-17T13:11:25;101412.63;;;16.58;59.52
49473;BME280;67434;50.956;6.918;2023-02-17T13:13:51;101423.06;;;16.41;59.69
49473;BME280;67434;50.956;6.918;2023-02-17T13:16:16;101422.00;;;16.37;59.96
49473;BME280;67434;50.956;6.918;2023-02-17T13:18:47;101412.97;;;16.41;59.72
49473;BME280;67434;50.956;6.918;2023-02-17T13:24:01;101428.09;;;16.08;60.77
49473;BME280;67434;50.956;6.918;2023-02-17T13:26:34;101447.41;;;16.22;60.68
49473;BME280;67434;50.956;6.918;2023-02-17T13:29:11;101427.28;;;15.98;61.55
49473;BME280;67434;50.956;6.918;2023-02-17T13:32:03;101422.66;;;16.03;61.53
49473;BME280;67434;50.956;6.918;2023-02-17T13:34:37;101427.53;;;16.06;61.29
49473;BME280;67434;50.956;6.918;2023-02-17T13:39:56;101442.72;;;16.33;60.72
49473;BME280;67434;50.956;6.918;2023-02-17T13:44:58;101427.47;;;16.26;60.80
49473;BME280;67434;50.956;6.918;2023-02-17T13:47:32;101436.19;;;16.29;61.00
49473;BME280;67434;50.956;6.918;2023-02-17T13:49:59;101452.84;;;16.27;60.99
49473;BME280;67434;50.956;6.918;2023-02-17T13:52:27;101449.06;;;16.18;60.78
49473;BME280;67434;50.956;6.918;2023-02-17T13:55:01;101450.19;;;15.97;61.54
49473;BME280;67434;50.956;6.918;2023-02-17T13:57:34;101450.47;;;15.80;61.75
49473;BME280;67434;50.956;6.918;2023-02-17T14:00:21;101458.41;;;15.61;62.07
49473;BME280;67434;50.956;6.918;2023-02-17T14:02:49;101476.13;;;15.63;62.52
49473;BME280;67434;50.956;6.918;2023-02-17T14:07:47;101441.72;;;15.52;63.09
49473;BME280;67434;50.956;6.918;2023-02-17T14:10:21;101457.53;;;15.40;63.77
49473;BME280;67434;50.956;6.918;2023-02-17T14:12:47;101450.47;;;15.34;63.85
49473;BME280;67434;50.956;6.918;2023-02-17T14:15:19;101459.16;;;15.31;63.91
49473;BME280;67434;50.956;6.918;2023-02-17T14:17:45;101466.25;;;15.37;63.97
49473;BME280;67434;50.956;6.918;2023-02-17T14:20:31;101465.72;;;15.40;63.48
49473;BME280;67434;50.956;6.918;2023-02-17T14:23:11;101468.97;;;15.37;63.69
49473;BME280;67434;50.956;6.918;2023-02-17T14:25:40;101474.97;;;15.34;63.49
49473;BME280;67434;50.956;6.918;2023-02-17T14:28:24;101491.88;;;15.31;63.28
49473;BME280;67434;50.956;6.918;2023-02-17T14:30:51;101483.16;;;15.39;62.94
49473;BME280;67434;50.956;6.918;2023-02-17T14:33:18;101493.78;;;15.41;62.94
49473;BME280;67434;50.956;6.918;2023-02-17T14:36:00;101489.16;;;15.41;62.79
49473;BME280;67434;50.956;6.918;2023-02-17T14:38:38;101491.59;;;15.53;62.67
49473;BME280;67434;50.956;6.918;2023-02-17T14:41:05;101490.25;;;15.55;62.32
49473;BME280;67434;50.956;6.918;2023-02-17T14:43:30;101487.25;;;15.47;62.63